sensor_id;sensor_type;location;lat;lon;timestamp;P1;durP1;ratioP1;P2;durP2;ratioP2
26838;SDS011;40088;51.214;6.786;2023-02-15T00:05:35;9.27;;;7.85;;
26838;SDS011;40088;51.214;6.786;2023-02-15T00:15:35;10.27;;;8.15;;
26838;SDS011;40088;51.214;6.786;2023-02-15T00:25:36;11.13;;;8.75;;
26838;SDS011;40088;51.214;6.786;2023-02-15T00:35:36;9.63;;;7.88;;
26838;SDS011;40088;51.214;6.786;2023-02-15T00:45:36;10.40;;;8.50;;
26838;SDS011;40088;51.214;6.786;2023-02-15T00:55:36;9.30;;;7.95;;
26838;SDS011;40088;51.214;6.786;2023-02-15T01:05:37;9.05;;;7.82;;
26838;SDS011;40088;51.214;6.786;2023-02-15T01:15:37;10.00;;;8.80;;
26838;SDS011;40088;51.214;6.786;2023-02-15T01:25:37;10.68;;;8.43;;
26838;SDS011;40088;51.214;6.786;2023-02-15T01:35:38;10.63;;;8.90;;
26838;SDS011;40088;51.214;6.786;2023-02-15T01:45:38;10.30;;;8.82;;
26838;SDS011;40088;51.214;6.786;2023-02-15T01:55:40;9.75;;;8.60;;
26838;SDS011;40088;51.214;6.786;2023-02-15T02:06:04;11.35;;;8.75;;
26838;SDS011;40088;51.214;6.786;2023-02-15T02:16:13;10.82;;;8.82;;
26838;SDS011;40088;51.214;6.786;2023-02-15T02:26:32;10.63;;;8.30;;
26838;SDS011;40088;51.214;6.786;2023-02-15T02:36:38;10.40;;;8.95;;
26838;SDS011;40088;51.214;6.786;2023-02-15T02:57:04;10.85;;;9.70;;
26838;SDS011;40088;51.214;6.786;2023-02-15T03:07:10;10.57;;;8.98;;
26838;SDS011;40088;51.214;6.786;2023-02-15T03:17:13;11.45;;;9.82;;
26838;SDS011;40088;51.214;6.786;2023-02-15T03:27:15;10.80;;;9.00;;
26838;SDS011;40088;51.214;6.786;2023-02-15T03:37:35;11.75;;;9.65;;
26838;SDS011;40088;51.214;6.786;2023-02-15T03:47:43;11.98;;;9.35;;
26838;SDS011;40088;51.214;6.786;2023-02-15T03:57:46;10.95;;;8.82;;
26838;SDS011;40088;51.214;6.786;2023-02-15T04:08:06;10.48;;;8.90;;
26838;SDS011;40088;51.214;6.786;2023-02-15T04:18:06;10.43;;;8.68;;
26838;SDS011;40088;51.214;6.786;2023-02-15T04:28:07;12.18;;;9.45;;
26838;SDS011;40088;51.214;6.786;2023-02-15T04:38:07;11.73;;;9.60;;
26838;SDS011;40088;51.214;6.786;2023-02-15T04:48:07;11.65;;;9.55;;
26838;SDS011;40088;51.214;6.786;2023-02-15T04:58:08;11.43;;;9.50;;
26838;SDS011;40088;51.214;6.786;2023-02-15T05:08:08;12.93;;;9.93;;
26838;SDS011;40088;51.214;6.786;2023-02-15T05:18:08;12.57;;;10.40;;
26838;SDS011;40088;51.214;6.786;2023-02-15T05:28:10;12.65;;;10.10;;
26838;SDS011;40088;51.214;6.786;2023-02-15T05:38:20;15.77;;;10.95;;
26838;SDS011;40088;51.214;6.786;2023-02-15T05:48:20;12.50;;;9.98;;
26838;SDS011;40088;51.214;6.786;2023-02-15T05:58:25;11.52;;;9.10;;
26838;SDS011;40088;51.214;6.786;2023-02-15T06:08:26;11.63;;;9.65;;
26838;SDS011;40088;51.214;6.786;2023-02-15T06:18:27;11.07;;;9.02;;
26838;SDS011;40088;51.214;6.786;2023-02-15T06:28:27;10.50;;;8.93;;
26838;SDS011;40088;51.214;6.786;2023-02-15T06:38:27;11.77;;;9.50;;
26838;SDS011;40088;51.214;6.786;2023-02-15T06:48:27;12.27;;;9.63;;
26838;SDS011;40088;51.214;6.786;2023-02-15T06:58:28;11.07;;;8.90;;
26838;SDS011;40088;51.214;6.786;2023-02-15T07:08:28;11.00;;;9.33;;
26838;SDS011;40088;51.214;6.786;2023-02-15T07:18:29;10.48;;;8.80;;
26838;SDS011;40088;51.214;6.786;2023-02-15T07:28:29;10.80;;;8.55;;
26838;SDS011;40088;51.214;6.786;2023-02-15T07:38:31;11.33;;;9.00;;
26838;SDS011;40088;51.214;6.786;2023-02-15T07:48:33;10.23;;;8.80;;
26838;SDS011;40088;51.214;6.786;2023-02-15T07:58:34;11.05;;;8.45;;
26838;SDS011;40088;51.214;6.786;2023-02-15T08:08:53;11.07;;;8.52;;
26838;SDS011;40088;51.214;6.786;2023-02-15T08:18:54;9.63;;;8.07;;
26838;SDS011;40088;51.214;6.786;2023-02-15T08:28:56;10.52;;;8.55;;
26838;SDS011;40088;51.214;6.786;2023-02-15T08:38:57;9.50;;;8.40;;
26838;SDS011;40088;51.214;6.786;2023-02-15T08:48:59;8.43;;;7.25;;
26838;SDS011;40088;51.214;6.786;2023-02-15T08:58:59;10.88;;;7.60;;
26838;SDS011;40088;51.214;6.786;2023-02-15T09:09:00;8.50;;;6.90;;
26838;SDS011;40088;51.214;6.786;2023-02-15T09:19:00;7.93;;;7.13;;
26838;SDS011;40088;51.214;6.786;2023-02-15T09:29:01;9.77;;;7.68;;
26838;SDS011;40088;51.214;6.786;2023-02-15T09:49:18;9.05;;;6.78;;
26838;SDS011;40088;51.214;6.786;2023-02-15T10:20:23;9.88;;;6.97;;
26838;SDS011;40088;51.214;6.786;2023-02-15T10:30:43;7.93;;;6.20;;
26838;SDS011;40088;51.214;6.786;2023-02-15T10:40:53;7.28;;;6.45;;
26838;SDS011;40088;51.214;6.786;2023-02-15T10:51:00;7.72;;;6.45;;
26838;SDS011;40088;51.214;6.786;2023-02-15T11:01:07;6.75;;;6.00;;
26838;SDS011;40088;51.214;6.786;2023-02-15T11:11:24;7.45;;;6.05;;
26838;SDS011;40088;51.214;6.786;2023-02-15T11:21:33;35.90;;;7.72;;
26838;SDS011;40088;51.214;6.786;2023-02-15T11:31:46;57.70;;;9.20;;
26838;SDS011;40088;51.214;6.786;2023-02-15T11:41:52;34.55;;;8.20;;
26838;SDS011;40088;51.214;6.786;2023-02-15T11:51:55;26.83;;;7.65;;
26838;SDS011;40088;51.214;6.786;2023-02-15T12:01:57;15.88;;;6.78;;
26838;SDS011;40088;51.214;6.786;2023-02-15T12:22:27;8.50;;;6.70;;
26838;SDS011;40088;51.214;6.786;2023-02-15T12:32:31;9.00;;;5.53;;
26838;SDS011;40088;51.214;6.786;2023-02-15T12:42:42;8.52;;;5.85;;
26838;SDS011;40088;51.214;6.786;2023-02-15T12:52:45;8.43;;;5.50;;
26838;SDS011;40088;51.214;6.786;2023-02-15T13:02:56;9.33;;;5.97;;
26838;SDS011;40088;51.214;6.786;2023-02-15T13:12:58;7.35;;;5.82;;
26838;SDS011;40088;51.214;6.786;2023-02-15T13:23:00;10.30;;;7.03;;
26838;SDS011;40088;51.214;6.786;2023-02-15T13:33:05;10.68;;;5.95;;
26838;SDS011;40088;51.214;6.786;2023-02-15T14:24:42;10.18;;;5.90;;
26838;SDS011;40088;51.214;6.786;2023-02-15T14:34:52;9.75;;;6.10;;
26838;SDS011;40088;51.214;6.786;2023-02-15T14:45:02;8.30;;;5.38;;
26838;SDS011;40088;51.214;6.786;2023-02-15T14:55:15;7.18;;;5.72;;
26838;SDS011;40088;51.214;6.786;2023-02-15T15:05:35;7.63;;;5.95;;
26838;SDS011;40088;51.214;6.786;2023-02-15T15:15:48;8.35;;;5.32;;
26838;SDS011;40088;51.214;6.786;2023-02-15T15:25:56;6.63;;;5.15;;
26838;SDS011;40088;51.214;6.786;2023-02-15T15:46:36;7.65;;;5.30;;
26838;SDS011;40088;51.214;6.786;2023-02-15T15:56:59;7.68;;;5.53;;
26838;SDS011;40088;51.214;6.786;2023-02-15T16:07:14;5.82;;;4.65;;
26838;SDS011;40088;51.214;6.786;2023-02-15T16:17:24;6.57;;;5.43;;
26838;SDS011;40088;51.214;6.786;2023-02-15T16:37:37;9.25;;;5.40;;
26838;SDS011;40088;51.214;6.786;2023-02-15T16:47:41;7.20;;;5.40;;
26838;SDS011;40088;51.214;6.786;2023-02-15T16:57:45;11.32;;;5.68;;
26838;SDS011;40088;51.214;6.786;2023-02-15T17:18:18;10.57;;;5.80;;
26838;SDS011;40088;51.214;6.786;2023-02-15T17:28:24;8.77;;;6.85;;
26838;SDS011;40088;51.214;6.786;2023-02-15T17:38:26;15.13;;;7.20;;
26838;SDS011;40088;51.214;6.786;2023-02-15T17:48:33;10.65;;;7.22;;
26838;SDS011;40088;51.214;6.786;2023-02-15T17:58:36;11.73;;;8.40;;
26838;SDS011;40088;51.214;6.786;2023-02-15T18:08:36;15.90;;;10.50;;
26838;SDS011;40088;51.214;6.786;2023-02-15T18:18:55;18.48;;;11.77;;
26838;SDS011;40088;51.214;6.786;2023-02-15T18:28:56;22.73;;;14.40;;
26838;SDS011;40088;51.214;6.786;2023-02-15T18:38:57;20.10;;;14.65;;
26838;SDS011;40088;51.214;6.786;2023-02-15T18:48:59;19.85;;;14.20;;
26838;SDS011;40088;51.214;6.786;2023-02-15T18:58:59;17.83;;;13.10;;
26838;SDS011;40088;51.214;6.786;2023-02-15T19:08:59;17.95;;;12.15;;
26838;SDS011;40088;51.214;6.786;2023-02-15T19:19:00;17.27;;;11.18;;
26838;SDS011;40088;51.214;6.786;2023-02-15T19:29:01;14.50;;;10.73;;
26838;SDS011;40088;51.214;6.786;2023-02-15T19:39:01;14.27;;;10.00;;
26838;SDS011;40088;51.214;6.786;2023-02-15T19:49:01;16.20;;;11.02;;
26838;SDS011;40088;51.214;6.786;2023-02-15T19:59:02;17.45;;;10.23;;
26838;SDS011;40088;51.214;6.786;2023-02-15T20:09:03;14.20;;;11.40;;
26838;SDS011;40088;51.214;6.786;2023-02-15T20:19:03;12.82;;;10.13;;
26838;SDS011;40088;51.214;6.786;2023-02-15T20:29:03;13.10;;;9.52;;
26838;SDS011;40088;51.214;6.786;2023-02-15T20:39:10;12.35;;;9.40;;
26838;SDS011;40088;51.214;6.786;2023-02-15T20:49:13;11.60;;;9.65;;
26838;SDS011;40088;51.214;6.786;2023-02-15T21:09:24;12.48;;;9.00;;
26838;SDS011;40088;51.214;6.786;2023-02-15T21:19:26;13.45;;;9.50;;
26838;SDS011;40088;51.214;6.786;2023-02-15T21:29:26;11.95;;;9.10;;
26838;SDS011;40088;51.214;6.786;2023-02-15T21:39:31;12.60;;;9.52;;
26838;SDS011;40088;51.214;6.786;2023-02-15T21:49:35;11.38;;;9.00;;
26838;SDS011;40088;51.214;6.786;2023-02-15T21:59:35;12.10;;;8.85;;
26838;SDS011;40088;51.214;6.786;2023-02-15T22:09:35;12.10;;;9.57;;
26838;SDS011;40088;51.214;6.786;2023-02-15T22:19:36;12.80;;;9.82;;
26838;SDS011;40088;51.214;6.786;2023-02-15T22:29:36;13.02;;;10.27;;
26838;SDS011;40088;51.214;6.786;2023-02-15T22:39:37;11.25;;;9.27;;
26838;SDS011;40088;51.214;6.786;2023-02-15T22:49:37;12.50;;;9.75;;
26838;SDS011;40088;51.214;6.786;2023-02-15T22:59:37;11.57;;;9.27;;
26838;SDS011;40088;51.214;6.786;2023-02-15T23:09:38;10.73;;;8.85;;
26838;SDS011;40088;51.214;6.786;2023-02-15T23:19:38;10.63;;;8.85;;
26838;SDS011;40088;51.214;6.786;2023-02-15T23:29:38;13.05;;;8.98;;
26838;SDS011;40088;51.214;6.786;2023-02-15T23:39:38;11.38;;;9.07;;
26838;SDS011;40088;51.214;6.786;2023-02-15T23:49:57;11.18;;;9.18;;
26838;SDS011;40088;51.214;6.786;2023-02-15T23:59:58;12.05;;;8.98;;
